Observations for DINARD PLEURTUIT, France (LFRD)

LFRD 170030Z AUTO 32003KT 9000 NSC 15/14 Q1018 TEMPO 0500 FG VV///  
LFRD 170000Z AUTO 31004KT 8000 NSC 13/12 Q1018 TEMPO 0500 FG VV///  
LFRD 162330Z AUTO VRB03KT 9000 NSC 13/12 Q1018 BECMG 3000 BR
LFRD 162300Z AUTO VRB02KT 9000 NSC 14/13 Q1018 BECMG 3000 BR
LFRD 162230Z AUTO VRB03KT 8000 NSC 14/13 Q1018 BECMG 3000 BR
LFRD 162200Z AUTO VRB02KT CAVOK 14/13 Q1018 BECMG 3000 BR   
LFRD 162130Z AUTO 29004KT CAVOK 15/13 Q1018 NOSIG   
LFRD 162100Z AUTO 31005KT CAVOK 15/13 Q1018 NOSIG   
LFRD 162030Z AUTO 30004KT CAVOK 16/14 Q1018 NOSIG   
LFRD 162000Z AUTO 33004KT CAVOK 17/13 Q1018 NOSIG   
LFRD 161930Z AUTO 34006KT CAVOK 18/14 Q1018 NOSIG   
LFRD 161900Z AUTO 34005KT CAVOK 19/14 Q1018 NOSIG   
LFRD 161830Z AUTO 35006KT CAVOK 19/13 Q1018 NOSIG   
LFRD 161800Z AUTO 02005KT 340V050 CAVOK 20/11 Q1018 NOSIG   
LFRD 161730Z AUTO 35006KT CAVOK 19/11 Q1018 NOSIG   
LFRD 161700Z AUTO 01008KT CAVOK 20/10 Q1018 NOSIG   
LFRD 161630Z AUTO 35009KT CAVOK 21/09 Q1018 NOSIG   
LFRD 161600Z AUTO 36008KT 330V030 CAVOK 21/10 Q1018 NOSIG   
LFRD 161530Z AUTO 36008KT 320V040 CAVOK 21/10 Q1018 NOSIG   
LFRD 161500Z AUTO 34008KT 310V030 CAVOK 21/11 Q1019 NOSIG   
LFRD 161430Z AUTO 35007KT 310V020 CAVOK 21/12 Q1019 NOSIG   
LFRD 161400Z AUTO 34009KT 300V030 CAVOK 21/13 Q1019 NOSIG   
LFRD 161330Z AUTO 34008KT 280V020 CAVOK 21/13 Q1019 NOSIG   
LFRD 161300Z AUTO 33010KT CAVOK 21/12 Q1019 NOSIG   
LFRD 161230Z AUTO 33009KT 290V010 CAVOK 21/13 Q1019 NOSIG   
LFRD 161200Z AUTO 35009KT 320V020 CAVOK 21/13 Q1019 NOSIG   
LFRD 161130Z AUTO 35009KT 310V010 CAVOK 21/14 Q1019 NOSIG   
LFRD 161100Z AUTO 36009KT 310V030 CAVOK 21/14 Q1019 NOSIG   
LFRD 161030Z AUTO 34007KT 250V020 9999 FEW007 21/13 Q1019 NOSIG 
LFRD 161000Z AUTO 33005KT 280V020 CAVOK 21/12 Q1019 NOSIG   
LFRD 160930Z AUTO VRB03KT CAVOK 21/13 Q1019 NOSIG   
LFRD 160900Z AUTO VRB04KT CAVOK 20/14 Q1019 NOSIG   
LFRD 160830Z AUTO VRB02KT CAVOK 20/12 Q1019 NOSIG   
LFRD 160800Z AUTO VRB02KT CAVOK 19/12 Q1019 NOSIG   
LFRD 160730Z AUTO VRB01KT CAVOK 19/12 Q1019 NOSIG   
LFRD 160700Z AUTO 00000KT CAVOK 17/12 Q1020 NOSIG   
LFRD 160630Z AUTO VRB01KT CAVOK 15/14 Q1020 NOSIG   
LFRD 160600Z AUTO 20002KT CAVOK 13/12 Q1019 NOSIG   
LFRD 160530Z AUTO 20003KT 9000 NSC 11/11 Q1019 TEMPO 0800 BCFG  
LFRD 160500Z AUTO 21002KT 6000 0650 R35L/P2000 BCFG NSC 11/11 Q1019 NOSIG   
LFRD 160430Z AUTO 00000KT 9999 0550 R35L/P2000 BCFG NSC 11/10 Q1019 TEMPO 3000 BR   
LFRD 160400Z AUTO 21002KT CAVOK 12/11 Q1019 TEMPO 3000 BR   
LFRD 160330Z AUTO 27002KT CAVOK 11/11 Q1019 TEMPO 3000 BR   
LFRD 160300Z AUTO 20002KT 9000 NSC 12/11 Q1019 TEMPO 3000 BR
LFRD 160230Z AUTO 20003KT CAVOK 12/11 Q1019 TEMPO 3000 BR   
LFRD 160200Z AUTO VRB02KT CAVOK 12/11 Q1020 TEMPO 3000 BR   
LFRD 160130Z AUTO VRB02KT CAVOK 12/11 Q1020 TEMPO 3000 BR   
LFRD 160100Z AUTO 00000KT CAVOK 13/12 Q1020 TEMPO 3000 BR   
LFRD 160030Z AUTO VRB02KT CAVOK 14/12 Q1020 TEMPO 3000 BR   
LFRD 160000Z AUTO VRB02KT CAVOK 14/12 Q1020 TEMPO 3000 BR